CPH weather

Public forecast

Using degrees Celsius for public forecast. Weather courtesy of forecast.io.

Current aviation weather report (METAR) for Copenhagen Kastrup Airport

Retrieved 2020/08/10 10:50 UTC (13 minutes ago):

EKCH 101050Z AUTO 36006KT 330V050 9999 NCD 28/18 Q1021 NOSIG

Aviation forecast (TAF) for Copenhagen Kastrup Airport

Retrieved 2020/08/10 06:30 UTC (5 hours ago):

TAF EKCH 100504Z 1006/1106 03008KT CAVOK TEMPO 1012/1018 TSRA SCT060CB BECMG 1012/1015 12008KT